sensor_id;sensor_type;location;lat;lon;timestamp;pressure;altitude;pressure_sealevel;temperature;humidity
5877;BME280;2964;42.144;24.730;2022-12-31T00:01:10;142101.56;;;1.91;100.00
5877;BME280;2964;42.144;24.730;2022-12-31T00:03:37;142157.69;;;2.14;100.00
5877;BME280;2964;42.144;24.730;2022-12-31T00:06:14;142150.22;;;2.11;100.00
5877;BME280;2964;42.144;24.730;2022-12-31T00:08:41;142124.00;;;2.00;100.00
5877;BME280;2964;42.144;24.730;2022-12-31T00:11:08;142097.81;;;1.89;100.00
5877;BME280;2964;42.144;24.730;2022-12-31T00:13:35;142082.88;;;1.83;100.00
5877;BME280;2964;42.144;24.730;2022-12-31T00:16:06;142196.34;;;2.30;100.00
5877;BME280;2964;42.144;24.730;2022-12-31T00:18:33;142171.41;;;2.20;100.00
5877;BME280;2964;42.144;24.730;2022-12-31T00:21:03;142163.91;;;2.17;100.00
5877;BME280;2964;42.144;24.730;2022-12-31T00:23:31;142158.94;;;2.15;100.00
5877;BME280;2964;42.144;24.730;2022-12-31T00:26:02;142143.94;;;2.08;100.00
5877;BME280;2964;42.144;24.730;2022-12-31T00:28:29;142197.56;;;2.30;100.00
5877;BME280;2964;42.144;24.730;2022-12-31T00:30:55;142163.91;;;2.17;100.00
5877;BME280;2964;42.144;24.730;2022-12-31T00:33:22;142175.13;;;2.21;100.00
5877;BME280;2964;42.144;24.730;2022-12-31T00:35:49;142187.59;;;2.26;100.00
5877;BME280;2964;42.144;24.730;2022-12-31T00:38:15;142279.94;;;2.64;100.00
5877;BME280;2964;42.144;24.730;2022-12-31T00:40:43;142326.09;;;2.83;100.00
5877;BME280;2964;42.144;24.730;2022-12-31T00:43:10;142332.38;;;2.86;100.00
5877;BME280;2964;42.144;24.730;2022-12-31T00:45:36;142306.16;;;2.75;100.00
5877;BME280;2964;42.144;24.730;2022-12-31T00:48:04;142240.00;;;2.48;100.00
5877;BME280;2964;42.144;24.730;2022-12-31T00:50:30;142203.84;;;2.33;100.00
5877;BME280;2964;42.144;24.730;2022-12-31T00:52:57;142193.88;;;2.29;100.00
5877;BME280;2964;42.144;24.730;2022-12-31T00:55:24;142303.63;;;2.74;100.00
5877;BME280;2964;42.144;24.730;2022-12-31T00:57:52;142282.41;;;2.65;100.00
5877;BME280;2964;42.144;24.730;2022-12-31T01:00:20;142246.22;;;2.50;100.00
5877;BME280;2964;42.144;24.730;2022-12-31T01:02:46;142268.69;;;2.60;100.00
5877;BME280;2964;42.144;24.730;2022-12-31T01:05:13;142249.97;;;2.52;100.00
5877;BME280;2964;42.144;24.730;2022-12-31T01:07:40;142237.50;;;2.47;100.00
5877;BME280;2964;42.144;24.730;2022-12-31T01:10:07;142268.69;;;2.60;100.00
5877;BME280;2964;42.144;24.730;2022-12-31T01:12:34;142248.75;;;2.51;100.00
5877;BME280;2964;42.144;24.730;2022-12-31T01:15:03;142236.25;;;2.46;100.00
5877;BME280;2964;42.144;24.730;2022-12-31T01:17:29;142299.88;;;2.73;100.00
5877;BME280;2964;42.144;24.730;2022-12-31T01:19:56;142299.88;;;2.73;100.00
5877;BME280;2964;42.144;24.730;2022-12-31T01:22:23;142301.16;;;2.73;100.00
5877;BME280;2964;42.144;24.730;2022-12-31T01:24:49;142259.94;;;2.56;100.00
5877;BME280;2964;42.144;24.730;2022-12-31T01:27:16;142165.16;;;2.17;100.00
5877;BME280;2964;42.144;24.730;2022-12-31T01:29:42;142131.50;;;2.03;100.00
5877;BME280;2964;42.144;24.730;2022-12-31T01:32:10;141985.63;;;1.43;100.00
5877;BME280;2964;42.144;24.730;2022-12-31T01:34:37;142168.91;;;2.19;100.00
5877;BME280;2964;42.144;24.730;2022-12-31T01:37:04;142111.53;;;1.95;100.00
5877;BME280;2964;42.144;24.730;2022-12-31T01:39:30;142076.59;;;1.81;100.00
5877;BME280;2964;42.144;24.730;2022-12-31T01:41:57;142060.44;;;1.74;100.00
5877;BME280;2964;42.144;24.730;2022-12-31T01:44:52;142112.81;;;1.96;100.00
5877;BME280;2964;42.144;24.730;2022-12-31T01:47:29;142066.66;;;1.77;100.00
5877;BME280;2964;42.144;24.730;2022-12-31T01:50:03;142055.44;;;1.72;100.00
5877;BME280;2964;42.144;24.730;2022-12-31T01:52:34;142065.41;;;1.76;100.00
5877;BME280;2964;42.144;24.730;2022-12-31T01:55:06;142069.16;;;1.78;100.00
5877;BME280;2964;42.144;24.730;2022-12-31T01:57:35;142075.38;;;1.80;100.00
5877;BME280;2964;42.144;24.730;2022-12-31T02:00:04;142148.97;;;2.10;100.00
5877;BME280;2964;42.144;24.730;2022-12-31T02:02:33;142166.44;;;2.18;100.00
5877;BME280;2964;42.144;24.730;2022-12-31T02:05:02;142125.25;;;2.01;100.00
5877;BME280;2964;42.144;24.730;2022-12-31T02:07:31;142061.66;;;1.74;100.00
5877;BME280;2964;42.144;24.730;2022-12-31T02:09:57;142131.50;;;2.03;100.00
5877;BME280;2964;42.144;24.730;2022-12-31T02:12:25;142072.91;;;1.79;100.00
5877;BME280;2964;42.144;24.730;2022-12-31T02:14:52;142029.25;;;1.61;100.00
5877;BME280;2964;42.144;24.730;2022-12-31T02:17:27;142104.09;;;1.92;100.00
5877;BME280;2964;42.144;24.730;2022-12-31T02:20:30;142086.63;;;1.85;100.00
5877;BME280;2964;42.144;24.730;2022-12-31T02:23:33;142026.75;;;1.60;100.00
5877;BME280;2964;42.144;24.730;2022-12-31T02:29:24;141980.63;;;1.41;100.00
5877;BME280;2964;42.144;24.730;2022-12-31T02:31:57;141991.88;;;1.46;100.00
5877;BME280;2964;42.144;24.730;2022-12-31T02:34:29;141986.84;;;1.44;100.00
5877;BME280;2964;42.144;24.730;2022-12-31T02:36:59;141980.63;;;1.41;100.00
5877;BME280;2964;42.144;24.730;2022-12-31T02:39:29;141956.97;;;1.31;100.00
5877;BME280;2964;42.144;24.730;2022-12-31T02:41:56;141975.66;;;1.39;100.00
5877;BME280;2964;42.144;24.730;2022-12-31T02:44:26;142013.03;;;1.54;100.00
5877;BME280;2964;42.144;24.730;2022-12-31T02:47:03;142006.81;;;1.52;100.00
5877;BME280;2964;42.144;24.730;2022-12-31T02:49:38;141991.88;;;1.46;100.00
5877;BME280;2964;42.144;24.730;2022-12-31T02:52:14;141990.59;;;1.45;100.00
5877;BME280;2964;42.144;24.730;2022-12-31T02:54:48;141959.44;;;1.32;100.00
5877;BME280;2964;42.144;24.730;2022-12-31T02:57:21;141966.94;;;1.35;100.00
5877;BME280;2964;42.144;24.730;2022-12-31T02:59:55;141947.03;;;1.27;100.00
5877;BME280;2964;42.144;24.730;2022-12-31T03:02:44;142003.06;;;1.50;100.00
5877;BME280;2964;42.144;24.730;2022-12-31T03:05:12;142004.31;;;1.51;100.00
5877;BME280;2964;42.144;24.730;2022-12-31T03:07:41;142021.75;;;1.58;100.00
5877;BME280;2964;42.144;24.730;2022-12-31T03:10:09;141995.59;;;1.47;100.00
5877;BME280;2964;42.144;24.730;2022-12-31T03:12:36;141961.94;;;1.33;100.00
5877;BME280;2964;42.144;24.730;2022-12-31T03:15:15;142059.19;;;1.73;100.00
5877;BME280;2964;42.144;24.730;2022-12-31T03:17:48;142064.19;;;1.76;100.00
5877;BME280;2964;42.144;24.730;2022-12-31T03:20:16;142024.28;;;1.59;100.00
5877;BME280;2964;42.144;24.730;2022-12-31T03:23:02;142004.31;;;1.51;100.00
5877;BME280;2964;42.144;24.730;2022-12-31T03:25:29;142066.66;;;1.77;100.00
5877;BME280;2964;42.144;24.730;2022-12-31T03:27:58;142054.16;;;1.71;100.00
5877;BME280;2964;42.144;24.730;2022-12-31T03:30:26;142112.81;;;1.96;100.00
5877;BME280;2964;42.144;24.730;2022-12-31T03:32:55;142105.31;;;1.92;100.00
5877;BME280;2964;42.144;24.730;2022-12-31T03:35:23;142044.19;;;1.67;100.00
5877;BME280;2964;42.144;24.730;2022-12-31T03:37:50;141998.09;;;1.48;100.00
5877;BME280;2964;42.144;24.730;2022-12-31T03:40:19;141976.88;;;1.40;100.00
5877;BME280;2964;42.144;24.730;2022-12-31T03:42:46;141964.41;;;1.34;100.00
5877;BME280;2964;42.144;24.730;2022-12-31T03:45:13;141994.34;;;1.47;100.00
5877;BME280;2964;42.144;24.730;2022-12-31T03:47:40;142029.25;;;1.61;100.00
5877;BME280;2964;42.144;24.730;2022-12-31T03:50:10;142015.56;;;1.56;100.00
5877;BME280;2964;42.144;24.730;2022-12-31T03:52:37;142056.69;;;1.72;100.00
5877;BME280;2964;42.144;24.730;2022-12-31T03:55:05;141956.97;;;1.31;100.00
5877;BME280;2964;42.144;24.730;2022-12-31T03:57:32;141912.13;;;1.13;100.00
5877;BME280;2964;42.144;24.730;2022-12-31T03:59:59;141898.41;;;1.07;100.00
5877;BME280;2964;42.144;24.730;2022-12-31T04:02:26;141902.16;;;1.09;100.00
5877;BME280;2964;42.144;24.730;2022-12-31T04:04:53;141914.59;;;1.14;100.00
5877;BME280;2964;42.144;24.730;2022-12-31T04:07:21;141919.56;;;1.16;100.00
5877;BME280;2964;42.144;24.730;2022-12-31T04:09:47;141918.31;;;1.15;100.00
5877;BME280;2964;42.144;24.730;2022-12-31T04:12:14;141925.81;;;1.19;100.00
5877;BME280;2964;42.144;24.730;2022-12-31T04:14:41;141966.94;;;1.35;100.00
5877;BME280;2964;42.144;24.730;2022-12-31T04:17:07;141999.34;;;1.49;100.00
5877;BME280;2964;42.144;24.730;2022-12-31T04:19:34;142036.75;;;1.64;100.00
5877;BME280;2964;42.144;24.730;2022-12-31T04:22:02;141984.38;;;1.43;100.00
5877;BME280;2964;42.144;24.730;2022-12-31T04:24:30;141980.63;;;1.41;100.00
5877;BME280;2964;42.144;24.730;2022-12-31T04:26:58;141974.44;;;1.39;100.00
5877;BME280;2964;42.144;24.730;2022-12-31T04:29:24;142001.84;;;1.50;100.00
5877;BME280;2964;42.144;24.730;2022-12-31T04:31:51;142051.69;;;1.70;100.00
5877;BME280;2964;42.144;24.730;2022-12-31T04:34:18;142051.69;;;1.70;100.00
5877;BME280;2964;42.144;24.730;2022-12-31T04:36:44;142046.72;;;1.68;100.00
5877;BME280;2964;42.144;24.730;2022-12-31T04:39:11;142074.13;;;1.80;100.00
5877;BME280;2964;42.144;24.730;2022-12-31T04:41:39;142096.59;;;1.89;100.00
5877;BME280;2964;42.144;24.730;2022-12-31T04:44:06;142119.03;;;1.98;100.00
5877;BME280;2964;42.144;24.730;2022-12-31T04:46:33;142126.53;;;2.01;100.00
5877;BME280;2964;42.144;24.730;2022-12-31T04:49:00;142138.97;;;2.06;100.00
5877;BME280;2964;42.144;24.730;2022-12-31T04:51:28;142143.94;;;2.08;100.00
5877;BME280;2964;42.144;24.730;2022-12-31T04:53:55;142137.72;;;2.06;100.00
5877;BME280;2964;42.144;24.730;2022-12-31T04:56:22;142094.06;;;1.88;100.00
5877;BME280;2964;42.144;24.730;2022-12-31T04:58:51;142146.47;;;2.09;100.00
5877;BME280;2964;42.144;24.730;2022-12-31T05:01:17;142122.78;;;2.00;100.00
5877;BME280;2964;42.144;24.730;2022-12-31T05:03:44;142156.44;;;2.13;100.00
5877;BME280;2964;42.144;24.730;2022-12-31T05:06:13;142099.06;;;1.90;100.00
5877;BME280;2964;42.144;24.730;2022-12-31T05:08:40;142157.69;;;2.14;100.00
5877;BME280;2964;42.144;24.730;2022-12-31T05:11:07;142165.16;;;2.17;100.00
5877;BME280;2964;42.144;24.730;2022-12-31T05:13:34;142121.50;;;1.99;100.00
5877;BME280;2964;42.144;24.730;2022-12-31T05:16:02;142168.91;;;2.19;100.00
5877;BME280;2964;42.144;24.730;2022-12-31T05:18:30;142266.22;;;2.59;100.00
5877;BME280;2964;42.144;24.730;2022-12-31T05:20:57;142186.38;;;2.26;100.00
5877;BME280;2964;42.144;24.730;2022-12-31T05:23:24;142254.97;;;2.54;100.00
5877;BME280;2964;42.144;24.730;2022-12-31T05:25:51;142282.41;;;2.65;100.00
5877;BME280;2964;42.144;24.730;2022-12-31T05:28:18;142271.22;;;2.61;100.00
5877;BME280;2964;42.144;24.730;2022-12-31T05:30:47;142283.69;;;2.66;100.00
5877;BME280;2964;42.144;24.730;2022-12-31T05:33:16;142306.16;;;2.75;100.00
5877;BME280;2964;42.144;24.730;2022-12-31T05:35:43;142321.13;;;2.81;100.00
5877;BME280;2964;42.144;24.730;2022-12-31T05:38:10;142331.09;;;2.85;100.00
5877;BME280;2964;42.144;24.730;2022-12-31T05:40:37;142346.09;;;2.92;100.00
5877;BME280;2964;42.144;24.730;2022-12-31T05:43:03;142363.53;;;2.99;100.00
5877;BME280;2964;42.144;24.730;2022-12-31T05:45:30;142363.53;;;2.99;100.00
5877;BME280;2964;42.144;24.730;2022-12-31T05:47:57;142359.81;;;2.97;100.00
5877;BME280;2964;42.144;24.730;2022-12-31T05:50:25;142452.16;;;3.35;100.00
5877;BME280;2964;42.144;24.730;2022-12-31T05:52:51;142518.34;;;3.62;100.00
5877;BME280;2964;42.144;24.730;2022-12-31T05:55:18;142448.41;;;3.34;100.00
5877;BME280;2964;42.144;24.730;2022-12-31T05:57:45;142429.69;;;3.26;100.00
5877;BME280;2964;42.144;24.730;2022-12-31T06:00:13;142383.50;;;3.07;100.00
5877;BME280;2964;42.144;24.730;2022-12-31T06:02:40;142387.25;;;3.08;100.00
5877;BME280;2964;42.144;24.730;2022-12-31T06:05:07;142425.94;;;3.24;100.00
5877;BME280;2964;42.144;24.730;2022-12-31T06:07:35;142439.66;;;3.30;100.00
5877;BME280;2964;42.144;24.730;2022-12-31T06:10:02;142547.06;;;3.74;100.00
5877;BME280;2964;42.144;24.730;2022-12-31T06:12:29;142553.31;;;3.77;100.00
5877;BME280;2964;42.144;24.730;2022-12-31T06:14:55;142528.31;;;3.66;100.00
5877;BME280;2964;42.144;24.730;2022-12-31T06:17:23;142473.41;;;3.44;100.00
5877;BME280;2964;42.144;24.730;2022-12-31T06:19:49;142480.91;;;3.47;100.00
5877;BME280;2964;42.144;24.730;2022-12-31T06:22:16;142490.88;;;3.51;100.00
5877;BME280;2964;42.144;24.730;2022-12-31T06:24:44;142527.09;;;3.66;100.00
5877;BME280;2964;42.144;24.730;2022-12-31T06:27:11;142575.81;;;3.86;100.00
5877;BME280;2964;42.144;24.730;2022-12-31T06:29:38;142570.81;;;3.84;100.00
5877;BME280;2964;42.144;24.730;2022-12-31T06:32:05;142706.97;;;4.40;100.00
5877;BME280;2964;42.144;24.730;2022-12-31T06:34:31;142632.00;;;4.09;100.00
5877;BME280;2964;42.144;24.730;2022-12-31T06:36:58;142605.75;;;3.98;100.00
5877;BME280;2964;42.144;24.730;2022-12-31T06:39:25;142681.97;;;4.30;100.00
5877;BME280;2964;42.144;24.730;2022-12-31T06:41:53;142688.25;;;4.32;100.00
5877;BME280;2964;42.144;24.730;2022-12-31T06:44:20;142657.00;;;4.19;100.00
5877;BME280;2964;42.144;24.730;2022-12-31T06:46:47;142658.25;;;4.20;100.00
5877;BME280;2964;42.144;24.730;2022-12-31T06:49:14;142649.50;;;4.16;100.00
5877;BME280;2964;42.144;24.730;2022-12-31T06:51:41;142741.97;;;4.54;100.00
5877;BME280;2964;42.144;24.730;2022-12-31T06:54:10;142559.56;;;3.79;100.00
5877;BME280;2964;42.144;24.730;2022-12-31T06:56:37;142695.75;;;4.35;100.00
5877;BME280;2964;42.144;24.730;2022-12-31T07:04:59;142709.50;;;4.41;100.00
5877;BME280;2964;42.144;24.730;2022-12-31T07:07:32;142667.00;;;4.23;100.00
5877;BME280;2964;42.144;24.730;2022-12-31T07:10:06;142718.25;;;4.44;100.00
5877;BME280;2964;42.144;24.730;2022-12-31T07:12:48;142671.97;;;4.25;100.00
5877;BME280;2964;42.144;24.730;2022-12-31T07:15:35;142753.22;;;4.59;100.00
5877;BME280;2964;42.144;24.730;2022-12-31T07:18:14;142761.94;;;4.62;100.00
5877;BME280;2964;42.144;24.730;2022-12-31T07:20:44;142804.47;;;4.80;100.00
5877;BME280;2964;42.144;24.730;2022-12-31T07:23:11;142820.69;;;4.87;100.00
5877;BME280;2964;42.144;24.730;2022-12-31T07:25:40;142859.47;;;5.02;100.00
5877;BME280;2964;42.144;24.730;2022-12-31T07:28:18;142875.75;;;5.09;100.00
5877;BME280;2964;42.144;24.730;2022-12-31T07:30:54;142853.25;;;5.00;100.00
5877;BME280;2964;42.144;24.730;2022-12-31T07:33:36;142856.97;;;5.01;100.00
5877;BME280;2964;42.144;24.730;2022-12-31T07:36:16;142829.47;;;4.90;100.00
5877;BME280;2964;42.144;24.730;2022-12-31T07:38:52;142918.25;;;5.27;100.00
5877;BME280;2964;42.144;24.730;2022-12-31T07:41:26;142960.78;;;5.44;100.00
5877;BME280;2964;42.144;24.730;2022-12-31T07:44:04;143028.34;;;5.72;100.00
5877;BME280;2964;42.144;24.730;2022-12-31T07:46:39;143053.34;;;5.82;100.00
5877;BME280;2964;42.144;24.730;2022-12-31T07:49:10;143198.53;;;6.42;98.68
5877;BME280;2964;42.144;24.730;2022-12-31T07:51:38;143171.00;;;6.30;98.15
5877;BME280;2964;42.144;24.730;2022-12-31T07:54:05;143269.91;;;6.71;97.54
5877;BME280;2964;42.144;24.730;2022-12-31T07:56:32;143213.59;;;6.48;96.70
5877;BME280;2964;42.144;24.730;2022-12-31T07:59:07;143063.34;;;5.86;99.72
5877;BME280;2964;42.144;24.730;2022-12-31T08:01:46;143004.53;;;5.62;98.97
5877;BME280;2964;42.144;24.730;2022-12-31T08:04:19;143128.47;;;6.13;99.60
5877;BME280;2964;42.144;24.730;2022-12-31T08:06:55;143040.81;;;5.77;99.64
5877;BME280;2964;42.144;24.730;2022-12-31T08:09:36;143105.94;;;6.04;100.00
5877;BME280;2964;42.144;24.730;2022-12-31T08:12:07;143193.53;;;6.40;100.00
5877;BME280;2964;42.144;24.730;2022-12-31T08:14:38;143266.13;;;6.69;97.32
5877;BME280;2964;42.144;24.730;2022-12-31T08:17:11;143277.44;;;6.74;97.65
5877;BME280;2964;42.144;24.730;2022-12-31T08:19:38;143248.66;;;6.62;98.31
5877;BME280;2964;42.144;24.730;2022-12-31T08:22:22;143343.81;;;7.01;97.22
5877;BME280;2964;42.144;24.730;2022-12-31T08:25:02;143311.22;;;6.88;97.59
5877;BME280;2964;42.144;24.730;2022-12-31T08:27:39;143336.28;;;6.98;97.36
5877;BME280;2964;42.144;24.730;2022-12-31T08:30:12;143427.72;;;7.35;96.46
5877;BME280;2964;42.144;24.730;2022-12-31T08:32:46;143511.66;;;7.70;95.97
5877;BME280;2964;42.144;24.730;2022-12-31T08:35:27;143709.78;;;8.51;92.38
5877;BME280;2964;42.144;24.730;2022-12-31T08:38:01;143880.38;;;9.21;89.50
5877;BME280;2964;42.144;24.730;2022-12-31T08:40:45;143815.13;;;8.94;89.24
5877;BME280;2964;42.144;24.730;2022-12-31T08:43:26;143764.94;;;8.74;90.24
5877;BME280;2964;42.144;24.730;2022-12-31T08:46:27;143820.13;;;8.96;89.41
5877;BME280;2964;42.144;24.730;2022-12-31T08:49:16;143830.19;;;9.00;89.44
5877;BME280;2964;42.144;24.730;2022-12-31T08:51:44;143854.03;;;9.10;87.69
5877;BME280;2964;42.144;24.730;2022-12-31T08:54:32;143659.59;;;8.30;89.69
5877;BME280;2964;42.144;24.730;2022-12-31T08:57:14;143748.66;;;8.67;90.51
5877;BME280;2964;42.144;24.730;2022-12-31T08:59:51;143776.25;;;8.78;90.61
5877;BME280;2964;42.144;24.730;2022-12-31T09:02:46;143816.41;;;8.95;89.64
5877;BME280;2964;42.144;24.730;2022-12-31T09:05:22;143815.13;;;8.94;89.53
5877;BME280;2964;42.144;24.730;2022-12-31T09:07:57;143800.06;;;8.88;89.75
5877;BME280;2964;42.144;24.730;2022-12-31T09:10:29;143857.78;;;9.12;89.00
5877;BME280;2964;42.144;24.730;2022-12-31T09:13:01;143872.84;;;9.18;88.24
5877;BME280;2964;42.144;24.730;2022-12-31T09:15:36;143692.22;;;8.44;88.98
5877;BME280;2964;42.144;24.730;2022-12-31T09:18:07;143993.31;;;9.67;88.31
5877;BME280;2964;42.144;24.730;2022-12-31T09:20:36;144206.81;;;10.54;84.14
5877;BME280;2964;42.144;24.730;2022-12-31T09:23:05;144264.59;;;10.78;82.10
5877;BME280;2964;42.144;24.730;2022-12-31T09:25:32;144741.13;;;12.72;79.51
5877;BME280;2964;42.144;24.730;2022-12-31T09:28:08;145203.38;;;14.61;71.21
5877;BME280;2964;42.144;24.730;2022-12-31T09:30:43;145210.91;;;14.64;68.08
5877;BME280;2964;42.144;24.730;2022-12-31T09:33:15;145105.03;;;14.21;69.29
5877;BME280;2964;42.144;24.730;2022-12-31T09:35:51;145301.63;;;15.01;66.73
5877;BME280;2964;42.144;24.730;2022-12-31T09:38:22;145807.56;;;17.07;60.01
5877;BME280;2964;42.144;24.730;2022-12-31T09:41:15;146288.97;;;19.02;54.62
5877;BME280;2964;42.144;24.730;2022-12-31T09:56:11;147167.59;;;22.59;36.56
5877;BME280;2964;42.144;24.730;2022-12-31T09:58:44;147179.03;;;22.63;36.53
5877;BME280;2964;42.144;24.730;2022-12-31T10:01:26;147033.28;;;22.04;35.74
5877;BME280;2964;42.144;24.730;2022-12-31T10:04:13;147144.78;;;22.49;35.75
5877;BME280;2964;42.144;24.730;2022-12-31T10:06:50;146244.72;;;18.84;40.02
5877;BME280;2964;42.144;24.730;2022-12-31T10:09:41;145695.19;;;16.61;47.41
5877;BME280;2964;42.144;24.730;2022-12-31T10:12:38;145345.75;;;15.19;51.96
5877;BME280;2964;42.144;24.730;2022-12-31T10:15:20;145042.06;;;13.95;56.65
5877;BME280;2964;42.144;24.730;2022-12-31T10:17:56;144826.69;;;13.07;58.33
5877;BME280;2964;42.144;24.730;2022-12-31T10:20:49;144781.41;;;12.89;58.54
5877;BME280;2964;42.144;24.730;2022-12-31T10:26:30;144645.53;;;12.33;60.40
5877;BME280;2964;42.144;24.730;2022-12-31T10:29:09;144614.06;;;12.21;61.34
5877;BME280;2964;42.144;24.730;2022-12-31T10:31:46;144651.84;;;12.36;60.71
5877;BME280;2964;42.144;24.730;2022-12-31T10:34:16;144573.81;;;12.04;61.77
5877;BME280;2964;42.144;24.730;2022-12-31T10:36:53;144578.91;;;12.06;62.25
5877;BME280;2964;42.144;24.730;2022-12-31T10:39:37;144532.28;;;11.87;62.57
5877;BME280;2964;42.144;24.730;2022-12-31T10:45:32;144444.31;;;11.51;64.80
5877;BME280;2964;42.144;24.730;2022-12-31T10:48:28;144446.78;;;11.52;64.53
5877;BME280;2964;42.144;24.730;2022-12-31T10:51:34;144460.63;;;11.58;64.06
5877;BME280;2964;42.144;24.730;2022-12-31T10:54:33;144463.16;;;11.59;64.64
5877;BME280;2964;42.144;24.730;2022-12-31T10:57:31;144485.78;;;11.68;64.04
5877;BME280;2964;42.144;24.730;2022-12-31T11:00:15;144552.47;;;11.95;62.89
5877;BME280;2964;42.144;24.730;2022-12-31T11:03:12;144487.03;;;11.69;63.93
5877;BME280;2964;42.144;24.730;2022-12-31T11:06:13;144475.75;;;11.64;64.87
5877;BME280;2964;42.144;24.730;2022-12-31T11:09:15;144567.56;;;12.02;63.72
5877;BME280;2964;42.144;24.730;2022-12-31T11:11:52;144561.28;;;11.99;63.06
5877;BME280;2964;42.144;24.730;2022-12-31T11:14:37;144596.47;;;12.13;62.48
5877;BME280;2964;42.144;24.730;2022-12-31T11:17:18;144593.97;;;12.12;62.75
5877;BME280;2964;42.144;24.730;2022-12-31T11:19:55;144626.66;;;12.26;62.11
5877;BME280;2964;42.144;24.730;2022-12-31T11:22:36;144614.06;;;12.21;62.60
5877;BME280;2964;42.144;24.730;2022-12-31T11:25:27;144638.00;;;12.30;62.26
5877;BME280;2964;42.144;24.730;2022-12-31T11:28:19;144614.06;;;12.21;62.41
5877;BME280;2964;42.144;24.730;2022-12-31T11:31:02;144634.22;;;12.29;63.05
5877;BME280;2964;42.144;24.730;2022-12-31T11:33:43;144634.22;;;12.29;63.27
5877;BME280;2964;42.144;24.730;2022-12-31T11:36:19;144641.75;;;12.32;63.90
5877;BME280;2964;42.144;24.730;2022-12-31T11:38:59;144641.75;;;12.32;63.85
5877;BME280;2964;42.144;24.730;2022-12-31T11:41:34;144651.84;;;12.36;63.56
5877;BME280;2964;42.144;24.730;2022-12-31T11:44:28;144654.31;;;12.37;63.04
5877;BME280;2964;42.144;24.730;2022-12-31T11:47:08;144656.88;;;12.38;63.39
5877;BME280;2964;42.144;24.730;2022-12-31T11:49:53;144641.75;;;12.32;64.10
5877;BME280;2964;42.144;24.730;2022-12-31T11:52:37;144668.16;;;12.43;63.71
5877;BME280;2964;42.144;24.730;2022-12-31T11:55:36;144688.31;;;12.51;62.90
5877;BME280;2964;42.144;24.730;2022-12-31T11:58:12;144607.81;;;12.18;62.59
5877;BME280;2964;42.144;24.730;2022-12-31T12:00:43;144694.59;;;12.53;62.67
5877;BME280;2964;42.144;24.730;2022-12-31T12:03:13;144682.00;;;12.48;62.97
5877;BME280;2964;42.144;24.730;2022-12-31T12:05:40;144724.78;;;12.66;62.92
5877;BME280;2964;42.144;24.730;2022-12-31T12:08:06;144738.63;;;12.71;62.48
5877;BME280;2964;42.144;24.730;2022-12-31T12:10:38;144723.56;;;12.65;62.69
5877;BME280;2964;42.144;24.730;2022-12-31T12:13:21;144694.59;;;12.53;63.27
5877;BME280;2964;42.144;24.730;2022-12-31T12:15:50;144729.81;;;12.68;63.36
5877;BME280;2964;42.144;24.730;2022-12-31T12:18:32;144692.09;;;12.52;63.12
5877;BME280;2964;42.144;24.730;2022-12-31T12:21:02;144760.03;;;12.80;63.19
5877;BME280;2964;42.144;24.730;2022-12-31T12:23:30;144742.41;;;12.73;63.20
5877;BME280;2964;42.144;24.730;2022-12-31T12:25:57;144772.59;;;12.85;63.06
5877;BME280;2964;42.144;24.730;2022-12-31T12:28:26;144777.66;;;12.87;62.81
5877;BME280;2964;42.144;24.730;2022-12-31T12:30:56;144777.66;;;12.87;62.89
5877;BME280;2964;42.144;24.730;2022-12-31T12:33:23;144801.56;;;12.97;62.46
5877;BME280;2964;42.144;24.730;2022-12-31T12:35:51;144806.59;;;12.99;62.51
5877;BME280;2964;42.144;24.730;2022-12-31T12:38:20;144816.63;;;13.03;62.38
5877;BME280;2964;42.144;24.730;2022-12-31T12:40:56;144820.44;;;13.05;62.49
5877;BME280;2964;42.144;24.730;2022-12-31T12:43:25;144821.66;;;13.05;61.70
5877;BME280;2964;42.144;24.730;2022-12-31T12:45:53;144825.44;;;13.07;62.11
5877;BME280;2964;42.144;24.730;2022-12-31T12:48:30;144826.69;;;13.07;61.85
5877;BME280;2964;42.144;24.730;2022-12-31T12:50:59;144799.00;;;12.96;61.56
5877;BME280;2964;42.144;24.730;2022-12-31T12:53:35;144843.06;;;13.14;61.87
5877;BME280;2964;42.144;24.730;2022-12-31T12:56:12;144833.03;;;13.10;61.91
5877;BME280;2964;42.144;24.730;2022-12-31T12:58:54;144820.44;;;13.05;62.51
5877;BME280;2964;42.144;24.730;2022-12-31T13:01:30;144830.47;;;13.09;61.68
5877;BME280;2964;42.144;24.730;2022-12-31T13:04:25;144865.72;;;13.23;61.52
5877;BME280;2964;42.144;24.730;2022-12-31T13:07:10;144863.19;;;13.22;61.00
5877;BME280;2964;42.144;24.730;2022-12-31T13:09:59;144860.69;;;13.21;61.51
5877;BME280;2964;42.144;24.730;2022-12-31T13:12:31;144873.31;;;13.26;61.53
5877;BME280;2964;42.144;24.730;2022-12-31T13:15:05;144908.56;;;13.41;60.72
5877;BME280;2964;42.144;24.730;2022-12-31T13:17:45;144907.31;;;13.40;60.54
5877;BME280;2964;42.144;24.730;2022-12-31T13:20:20;144901.03;;;13.38;60.54
5877;BME280;2964;42.144;24.730;2022-12-31T13:22:55;144888.44;;;13.32;61.04
5877;BME280;2964;42.144;24.730;2022-12-31T13:25:29;144815.41;;;13.03;60.93
5877;BME280;2964;42.144;24.730;2022-12-31T13:28:03;144896.00;;;13.36;60.85
5877;BME280;2964;42.144;24.730;2022-12-31T13:30:34;144901.03;;;13.38;60.74
5877;BME280;2964;42.144;24.730;2022-12-31T13:33:06;144903.53;;;13.39;60.85
5877;BME280;2964;42.144;24.730;2022-12-31T13:35:43;144898.50;;;13.37;60.93
5877;BME280;2964;42.144;24.730;2022-12-31T13:38:16;144907.31;;;13.40;60.86
5877;BME280;2964;42.144;24.730;2022-12-31T13:40:47;144903.53;;;13.39;60.81
5877;BME280;2964;42.144;24.730;2022-12-31T13:43:18;144855.69;;;13.19;61.01
5877;BME280;2964;42.144;24.730;2022-12-31T13:45:59;144906.06;;;13.40;61.05
5877;BME280;2964;42.144;24.730;2022-12-31T13:48:33;144873.31;;;13.26;60.81
5877;BME280;2964;42.144;24.730;2022-12-31T13:51:06;144870.75;;;13.25;60.63
5877;BME280;2964;42.144;24.730;2022-12-31T13:53:41;144889.69;;;13.33;61.06
5877;BME280;2964;42.144;24.730;2022-12-31T13:56:12;144951.38;;;13.58;60.83
5877;BME280;2964;42.144;24.730;2022-12-31T13:58:44;144947.59;;;13.57;60.74
5877;BME280;2964;42.144;24.730;2022-12-31T14:01:17;144948.84;;;13.57;60.72